createdAt,value
2022-09-03T00:02:39.745Z,100236.03
2022-09-03T00:05:35.695Z,100206.91
2022-09-03T00:08:33.670Z,100242.38
2022-09-03T00:11:28.929Z,100238.41
2022-09-03T00:14:27.799Z,100245.16
2022-09-03T00:17:18.903Z,100248.34
2022-09-03T00:20:15.607Z,100234.75
2022-09-03T00:23:10.659Z,100227.59
2022-09-03T00:26:22.941Z,100240.72
2022-09-03T00:29:21.537Z,100249.91
2022-09-03T00:32:20.481Z,100252.72
2022-09-03T00:35:17.194Z,100247.56
2022-09-03T00:38:06.385Z,100226.00
2022-09-03T00:41:31.627Z,100253.50
2022-09-03T00:44:48.558Z,100248.75
2022-09-03T00:48:02.503Z,100254.72
2022-09-03T00:51:01.166Z,100265.88
2022-09-03T00:53:57.727Z,100271.44
2022-09-03T00:56:55.955Z,100260.28
2022-09-03T01:00:15.689Z,100264.25
2022-09-03T01:03:34.140Z,100267.84
2022-09-03T01:07:02.317Z,100273.00
2022-09-03T01:10:08.117Z,100280.22
2022-09-03T01:13:14.459Z,100275.41
2022-09-03T01:16:07.590Z,100281.38
2022-09-03T01:19:13.588Z,100243.88
2022-09-03T01:22:21.191Z,100271.81
2022-09-03T01:25:22.727Z,100275.81
2022-09-03T01:28:24.238Z,100279.44
2022-09-03T01:31:38.115Z,100266.66
2022-09-03T01:34:54.035Z,100236.31
2022-09-03T01:38:05.702Z,100269.06
2022-09-03T01:41:36.933Z,100267.03
2022-09-03T01:45:02.965Z,100267.06
2022-09-03T01:48:06.306Z,100270.25
2022-09-03T01:51:02.685Z,100275.44
2022-09-03T01:54:10.919Z,100185.31
2022-09-03T01:57:42.952Z,100261.13
2022-09-03T02:00:33.565Z,100258.72
2022-09-03T02:03:22.015Z,100251.13
2022-09-03T02:06:12.380Z,100259.53
2022-09-03T02:09:00.108Z,100251.94
2022-09-03T02:11:59.855Z,100246.72
2022-09-03T02:14:47.809Z,100216.41
2022-09-03T02:17:36.854Z,100249.91
2022-09-03T02:20:29.636Z,100236.78
2022-09-03T02:23:17.295Z,100239.53
2022-09-03T02:26:11.755Z,100241.16
2022-09-03T02:28:59.608Z,100249.06
2022-09-03T02:31:47.839Z,100249.13
2022-09-03T02:34:35.668Z,100237.94
2022-09-03T02:37:23.726Z,100256.69
2022-09-03T02:40:12.237Z,100269.81
2022-09-03T02:43:00.446Z,100261.06
2022-09-03T02:45:52.971Z,100269.44
2022-09-03T02:48:40.762Z,100277.00
2022-09-03T02:51:33.253Z,100246.66
2022-09-03T02:54:21.258Z,100275.41
2022-09-03T02:57:10.553Z,100282.56
2022-09-03T02:59:58.930Z,100273.81
2022-09-03T03:02:47.233Z,100265.47
2022-09-03T03:05:58.181Z,100272.22
2022-09-03T03:08:45.775Z,100253.47
2022-09-03T03:11:33.548Z,100263.06
2022-09-03T03:14:22.704Z,100254.69
2022-09-03T03:17:10.582Z,100228.34
2022-09-03T03:19:58.378Z,100265.84
2022-09-03T03:22:46.036Z,100258.66
2022-09-03T03:25:35.408Z,100267.41
2022-09-03T03:28:23.173Z,100263.44
2022-09-03T03:31:16.690Z,100257.06
2022-09-03T03:34:04.386Z,100245.88
2022-09-03T03:36:54.760Z,100269.84
2022-09-03T03:39:42.623Z,100260.63
2022-09-03T03:42:35.865Z,100269.41
2022-09-03T03:45:26.211Z,100259.88
2022-09-03T03:48:13.743Z,100261.44
2022-09-03T03:51:04.486Z,100263.44
2022-09-03T03:54:00.198Z,100271.38
2022-09-03T03:56:55.733Z,100264.22
2022-09-03T03:59:43.551Z,100276.16
2022-09-03T04:02:33.350Z,100275.34
2022-09-03T04:05:23.279Z,100288.47
2022-09-03T04:08:12.717Z,100284.88
2022-09-03T04:11:02.154Z,100280.16
2022-09-03T04:13:51.204Z,100256.97
2022-09-03T04:16:38.888Z,100276.13
2022-09-03T04:19:32.321Z,100288.84
2022-09-03T04:22:20.971Z,100270.56
2022-09-03T04:25:09.427Z,100281.28
2022-09-03T04:27:57.129Z,100291.31
2022-09-03T04:30:44.921Z,100280.91
2022-09-03T04:33:40.059Z,100293.31
2022-09-03T04:36:30.496Z,100289.75
2022-09-03T04:39:18.257Z,100274.63
2022-09-03T04:42:07.960Z,100288.13
2022-09-03T04:44:58.484Z,100302.09
2022-09-03T04:48:16.250Z,100300.91
2022-09-03T04:51:08.373Z,100297.75
2022-09-03T04:53:59.163Z,100301.69
2022-09-03T04:56:47.149Z,100293.69
2022-09-03T04:59:39.092Z,100308.91
2022-09-03T05:02:27.300Z,100308.09
2022-09-03T05:05:16.011Z,100310.47
2022-09-03T05:08:04.499Z,100329.25
2022-09-03T05:11:01.326Z,100338.00
2022-09-03T05:13:50.432Z,100325.66
2022-09-03T05:16:39.227Z,100330.44
2022-09-03T05:19:29.307Z,100330.50
2022-09-03T05:22:21.500Z,100328.03
2022-09-03T05:25:09.227Z,100345.56
2022-09-03T05:27:58.001Z,100339.16
2022-09-03T05:30:45.707Z,100351.91
2022-09-03T05:33:43.035Z,100351.91
2022-09-03T05:36:36.644Z,100343.16
2022-09-03T05:39:27.748Z,100331.59
2022-09-03T05:42:21.428Z,100347.56
2022-09-03T05:45:13.332Z,100346.03
2022-09-03T05:48:04.034Z,100354.81
2022-09-03T05:51:02.443Z,100352.38
2022-09-03T05:53:50.094Z,100356.41
2022-09-03T05:56:40.416Z,100331.66
2022-09-03T05:59:32.197Z,100350.81
2022-09-03T06:02:23.153Z,100362.78
2022-09-03T06:05:13.597Z,100353.28
2022-09-03T06:08:01.519Z,100369.63
2022-09-03T06:10:49.757Z,100369.25
2022-09-03T06:13:37.813Z,100372.81
2022-09-03T06:16:30.524Z,100360.88
2022-09-03T06:19:19.941Z,100359.28
2022-09-03T06:22:10.111Z,100366.47
2022-09-03T06:25:00.452Z,100368.88
2022-09-03T06:27:49.629Z,100372.88
2022-09-03T06:30:37.639Z,100372.88
2022-09-03T06:33:25.463Z,100369.69
2022-09-03T06:36:24.454Z,100360.50
2022-09-03T06:39:12.375Z,100367.66
2022-09-03T06:42:00.172Z,100359.31
2022-09-03T06:44:56.303Z,100366.47
2022-09-03T06:47:44.171Z,100360.47
2022-09-03T06:50:36.122Z,100358.09
2022-09-03T06:53:32.059Z,100372.88
2022-09-03T06:56:27.218Z,100373.25
2022-09-03T06:59:15.634Z,100378.44
2022-09-03T07:02:04.148Z,100379.22
2022-09-03T07:04:51.930Z,100362.47
2022-09-03T07:07:41.843Z,100370.06
2022-09-03T07:10:32.678Z,100373.22
2022-09-03T07:13:21.112Z,100369.66
2022-09-03T07:16:11.713Z,100367.25
2022-09-03T07:19:01.170Z,100378.84
2022-09-03T07:21:50.595Z,100387.22
2022-09-03T07:24:38.663Z,100388.00
2022-09-03T07:27:26.784Z,100387.97
2022-09-03T07:30:14.624Z,100378.00
2022-09-03T07:33:07.495Z,100394.78
2022-09-03T07:35:55.073Z,100394.78
2022-09-03T07:38:47.798Z,100400.31
2022-09-03T07:41:38.230Z,100380.38
2022-09-03T07:44:29.224Z,100398.31
2022-09-03T07:47:23.296Z,100395.16
2022-09-03T07:50:16.499Z,100402.31
2022-09-03T07:53:04.240Z,100372.38
2022-09-03T07:55:52.054Z,100368.72
2022-09-03T07:58:41.978Z,100396.53
2022-09-03T08:01:31.946Z,100396.00
2022-09-03T08:04:20.810Z,100397.19
2022-09-03T08:07:11.471Z,100386.78
2022-09-03T08:10:01.530Z,100368.94
2022-09-03T08:12:52.308Z,100384.00
2022-09-03T08:15:43.612Z,100390.31
2022-09-03T08:18:35.748Z,100389.13
2022-09-03T08:21:26.459Z,100382.06
2022-09-03T08:24:16.907Z,100392.09
2022-09-03T08:27:05.365Z,100389.94
2022-09-03T08:29:53.506Z,100387.81
2022-09-03T08:32:42.696Z,100394.69
2022-09-03T08:35:32.456Z,100391.59
2022-09-03T08:38:20.429Z,100402.81
2022-09-03T08:41:18.523Z,100386.47
2022-09-03T08:44:28.156Z,100411.66
2022-09-03T08:47:47.467Z,100394.84
2022-09-03T08:50:51.848Z,100402.69
2022-09-03T08:53:48.657Z,100403.56
2022-09-03T08:56:40.229Z,100405.91
2022-09-03T08:59:30.149Z,100377.19
2022-09-03T09:02:39.056Z,100393.06
2022-09-03T09:06:08.256Z,100397.66
2022-09-03T09:08:58.741Z,100408.91
2022-09-03T09:11:52.461Z,100404.91
2022-09-03T09:15:10.883Z,100417.31
2022-09-03T09:18:24.455Z,100417.31
2022-09-03T09:21:27.728Z,100416.50
2022-09-03T09:24:27.728Z,100412.44
2022-09-03T09:27:17.497Z,100361.75
2022-09-03T09:30:06.439Z,100411.09
2022-09-03T09:32:54.080Z,100419.16
2022-09-03T09:35:43.322Z,100422.03
2022-09-03T09:38:37.157Z,100413.31
2022-09-03T09:41:29.665Z,100423.19
2022-09-03T09:44:21.789Z,100428.38
2022-09-03T09:47:12.500Z,100427.88
2022-09-03T09:50:02.853Z,100421.88
2022-09-03T09:53:08.525Z,100429.97
2022-09-03T09:56:03.144Z,100443.06
2022-09-03T09:58:52.909Z,100441.91
2022-09-03T10:01:45.088Z,100444.84
2022-09-03T10:04:33.547Z,100449.28
2022-09-03T10:07:33.230Z,100382.34
2022-09-03T10:10:22.064Z,100452.09
2022-09-03T10:13:19.560Z,100451.59
2022-09-03T10:16:20.952Z,100446.31
2022-09-03T10:19:36.945Z,100442.50
2022-09-03T10:22:26.645Z,100431.19
2022-09-03T10:25:21.344Z,100429.94
2022-09-03T10:28:13.255Z,100450.47
2022-09-03T10:31:25.155Z,100456.50
2022-09-03T10:34:23.519Z,100453.34
2022-09-03T10:37:31.327Z,100470.56
2022-09-03T10:40:30.151Z,100466.56
2022-09-03T10:43:52.254Z,100469.38
2022-09-03T10:46:52.241Z,100470.53
2022-09-03T10:49:50.503Z,100453.78
2022-09-03T10:52:59.626Z,100477.25
2022-09-03T10:56:40.123Z,100458.84
2022-09-03T10:59:45.603Z,100455.66
2022-09-03T11:02:51.248Z,100437.63
2022-09-03T11:06:01.671Z,100463.81
2022-09-03T11:09:06.809Z,100444.56
2022-09-03T11:11:59.198Z,100408.41
2022-09-03T11:14:54.119Z,100456.22
2022-09-03T11:18:07.567Z,100460.81
2022-09-03T11:21:08.819Z,100448.66
2022-09-03T11:24:09.021Z,100449.63
2022-09-03T11:27:17.251Z,100450.13
2022-09-03T11:30:11.996Z,100446.84
2022-09-03T11:33:06.678Z,100417.31
2022-09-03T11:36:03.282Z,100429.06
2022-09-03T11:38:53.488Z,100431.41
2022-09-03T11:41:41.449Z,100435.97
2022-09-03T11:44:51.048Z,100420.25
2022-09-03T11:47:45.067Z,100431.34
2022-09-03T11:53:33.439Z,100440.75
2022-09-03T11:56:21.221Z,100432.34
2022-09-03T11:59:15.489Z,100445.06
2022-09-03T12:02:29.876Z,100438.31
2022-09-03T12:05:36.702Z,100441.38
2022-09-03T12:08:45.619Z,100433.59
2022-09-03T12:12:15.192Z,100389.31
2022-09-03T12:15:09.118Z,100408.13
2022-09-03T12:18:22.964Z,100441.09
2022-09-03T12:21:11.687Z,100429.34
2022-09-03T12:24:03.395Z,100430.19
2022-09-03T12:26:51.023Z,100421.75
2022-09-03T12:29:58.226Z,100438.84
2022-09-03T12:32:46.764Z,100424.81
2022-09-03T12:39:09.870Z,100429.13
2022-09-03T12:42:05.123Z,100361.38
2022-09-03T12:44:53.620Z,100445.53
2022-09-03T12:47:45.331Z,100442.06
2022-09-03T12:50:35.597Z,100431.31
2022-09-03T12:53:27.149Z,100434.75
2022-09-03T12:56:16.858Z,100427.34
2022-09-03T12:59:16.929Z,100423.75
2022-09-03T13:02:23.556Z,100395.53
2022-09-03T13:05:18.771Z,100408.19
2022-09-03T13:08:09.911Z,100415.88
2022-09-03T13:11:04.020Z,100403.13
2022-09-03T13:14:10.432Z,100403.06
2022-09-03T13:17:35.782Z,100386.69
2022-09-03T13:20:40.611Z,100382.66
2022-09-03T13:23:40.602Z,100405.03
2022-09-03T13:26:49.780Z,100406.56
2022-09-03T13:29:55.920Z,100404.94
2022-09-03T13:33:05.039Z,100404.00
2022-09-03T13:36:12.600Z,100398.22
2022-09-03T13:39:12.323Z,100409.63
2022-09-03T13:42:11.136Z,100395.59
2022-09-03T13:45:39.690Z,100395.44
2022-09-03T13:48:58.183Z,100401.88
2022-09-03T13:52:02.227Z,100369.16
2022-09-03T13:54:56.276Z,100358.59
2022-09-03T13:57:56.350Z,100384.41
2022-09-03T14:01:10.647Z,100386.19
2022-09-03T14:04:04.078Z,100382.56
2022-09-03T14:07:19.758Z,100381.56
2022-09-03T14:10:19.487Z,100392.88
2022-09-03T14:13:19.399Z,100398.97
2022-09-03T14:16:25.957Z,100389.91
2022-09-03T14:19:21.693Z,100391.56
2022-09-03T14:22:30.945Z,100396.63
2022-09-03T14:25:27.432Z,100387.69
2022-09-03T14:28:33.896Z,100401.44
2022-09-03T14:31:28.392Z,100401.72
2022-09-03T14:34:31.631Z,100409.59
2022-09-03T14:37:56.056Z,100408.84
2022-09-03T14:40:57.275Z,100401.22
2022-09-03T14:44:07.330Z,100381.25
2022-09-03T14:47:07.087Z,100403.31
2022-09-03T14:50:14.205Z,100408.59
2022-09-03T14:53:20.377Z,100396.47
2022-09-03T14:56:46.848Z,100405.28
2022-09-03T15:00:18.265Z,100410.91
2022-09-03T15:03:29.154Z,100404.50
2022-09-03T15:06:57.981Z,100400.66
2022-09-03T15:10:04.086Z,100393.31
2022-09-03T15:13:15.064Z,100402.59
2022-09-03T15:16:28.550Z,100399.06
2022-09-03T15:19:43.769Z,100399.53
2022-09-03T15:22:58.081Z,100406.50
2022-09-03T15:26:04.144Z,100413.84
2022-09-03T15:29:29.189Z,100407.72
2022-09-03T15:32:31.535Z,100393.06
2022-09-03T15:35:50.067Z,100399.91
2022-09-03T15:39:00.850Z,100421.06
2022-09-03T15:41:58.047Z,100386.53
2022-09-03T15:44:56.587Z,100409.22
2022-09-03T15:47:50.900Z,100416.34
2022-09-03T15:50:52.896Z,100382.69
2022-09-03T15:53:51.435Z,100402.59
2022-09-03T15:57:14.090Z,100396.59
2022-09-03T16:00:07.820Z,100413.50
2022-09-03T16:03:23.734Z,100391.34
2022-09-03T16:06:38.619Z,100420.06
2022-09-03T16:10:25.988Z,100424.81
2022-09-03T16:13:34.757Z,100419.75
2022-09-03T16:16:44.202Z,100433.13
2022-09-03T16:19:51.518Z,100408.75
2022-09-03T16:22:49.654Z,100429.63
2022-09-03T16:25:55.880Z,100412.25
2022-09-03T16:28:58.677Z,100427.31
2022-09-03T16:32:04.771Z,100441.84
2022-09-03T16:35:16.495Z,100432.00
2022-09-03T16:38:11.069Z,100426.47
2022-09-03T16:41:19.697Z,100444.13
2022-09-03T16:44:37.271Z,100443.28
2022-09-03T16:47:44.209Z,100436.13
2022-09-03T16:50:48.326Z,100457.38
2022-09-03T16:54:06.194Z,100455.09
2022-09-03T16:57:22.289Z,100459.88
2022-09-03T17:00:15.336Z,100423.97
2022-09-03T17:03:26.280Z,100426.06
2022-09-03T17:06:31.281Z,100447.97
2022-09-03T17:09:43.258Z,100435.69
2022-09-03T17:12:40.220Z,100462.03
2022-09-03T17:15:53.491Z,100465.25
2022-09-03T17:19:10.439Z,100470.84
2022-09-03T17:22:42.259Z,100466.16
2022-09-03T17:26:02.062Z,100465.78
2022-09-03T17:29:30.087Z,100467.75
2022-09-03T17:32:46.502Z,100475.81
2022-09-03T17:35:39.463Z,100472.63
2022-09-03T17:39:08.778Z,100477.03
2022-09-03T17:42:20.560Z,100475.47
2022-09-03T17:45:18.270Z,100491.94
2022-09-03T17:48:51.659Z,100487.59
2022-09-03T17:51:48.255Z,100487.59
2022-09-03T17:54:45.703Z,100501.66
2022-09-03T17:57:47.811Z,100501.28
2022-09-03T18:00:40.865Z,100508.47
2022-09-03T18:04:05.463Z,100517.69
2022-09-03T18:07:08.724Z,100530.91
2022-09-03T18:10:31.386Z,100462.28
2022-09-03T18:13:40.730Z,100544.91
2022-09-03T18:16:32.135Z,100540.53
2022-09-03T18:19:33.492Z,100527.78
2022-09-03T18:22:49.072Z,100550.53
2022-09-03T18:25:58.431Z,100554.56
2022-09-03T18:29:18.128Z,100569.72
2022-09-03T18:32:24.706Z,100541.34
2022-09-03T18:35:30.737Z,100559.72
2022-09-03T18:38:45.828Z,100568.50
2022-09-03T18:42:21.274Z,100562.94
2022-09-03T18:46:17.640Z,100571.69
2022-09-03T18:49:21.269Z,100576.88
2022-09-03T18:52:51.182Z,100568.53
2022-09-03T18:56:03.577Z,100574.44
2022-09-03T18:59:45.090Z,100578.84
2022-09-03T19:02:54.585Z,100593.16
2022-09-03T19:14:06.806Z,100599.94
2022-09-03T19:17:22.624Z,100600.69
2022-09-03T19:20:44.292Z,100576.28
2022-09-03T19:23:52.678Z,100603.84
2022-09-03T19:27:55.617Z,100602.25
2022-09-03T19:31:08.254Z,100608.19
2022-09-03T19:35:08.243Z,100609.78
2022-09-03T19:38:36.141Z,100607.44
2022-09-03T19:42:02.273Z,100605.44
2022-09-03T19:45:39.451Z,100606.22
2022-09-03T19:49:06.503Z,100602.56
2022-09-03T19:52:53.489Z,100600.19
2022-09-03T19:56:14.733Z,100596.13
2022-09-03T19:59:36.077Z,100592.09
2022-09-03T20:02:43.321Z,100604.84
2022-09-03T20:05:50.913Z,100589.53
2022-09-03T20:08:57.988Z,100584.72
2022-09-03T20:11:48.321Z,100619.09
2022-09-03T20:14:37.337Z,100601.81
2022-09-03T20:17:41.629Z,100623.84
2022-09-03T20:21:04.640Z,100631.03
2022-09-03T20:24:06.841Z,100634.56
2022-09-03T20:27:09.526Z,100641.28
2022-09-03T20:30:03.374Z,100625.31
2022-09-03T20:33:05.991Z,100649.63
2022-09-03T20:36:05.188Z,100594.81
2022-09-03T20:39:18.724Z,100639.69
2022-09-03T20:42:36.344Z,100648.00
2022-09-03T20:45:32.508Z,100649.53
2022-09-03T20:48:36.974Z,100645.06
2022-09-03T20:51:31.402Z,100638.66
2022-09-03T20:54:37.199Z,100640.38
2022-09-03T20:58:09.349Z,100639.91
2022-09-03T21:01:23.415Z,100640.56
2022-09-03T21:04:17.289Z,100645.88
2022-09-03T21:07:40.114Z,100649.38
2022-09-03T21:10:48.871Z,100650.59
2022-09-03T21:13:54.756Z,100635.09
2022-09-03T21:17:06.733Z,100641.50
2022-09-03T21:20:23.452Z,100635.09
2022-09-03T21:23:23.000Z,100636.63
2022-09-03T21:26:16.268Z,100624.94
2022-09-03T21:29:35.112Z,100646.91
2022-09-03T21:32:33.630Z,100618.59
2022-09-03T21:35:33.507Z,100652.19
2022-09-03T21:38:25.184Z,100647.91
2022-09-03T21:41:34.780Z,100646.94
2022-09-03T21:44:45.394Z,100648.09
2022-09-03T21:47:38.099Z,100654.47
2022-09-03T21:50:56.867Z,100655.97
2022-09-03T21:54:09.213Z,100637.63
2022-09-03T21:57:12.625Z,100648.81
2022-09-03T22:00:29.805Z,100645.53
2022-09-03T22:03:17.469Z,100621.16
2022-09-03T22:06:19.123Z,100652.28
2022-09-03T22:09:15.854Z,100618.28
2022-09-03T22:12:28.423Z,100644.66
2022-09-03T22:15:18.529Z,100644.63
2022-09-03T22:18:16.295Z,100631.03
2022-09-03T22:21:23.641Z,100638.97
2022-09-03T22:24:22.458Z,100629.69
2022-09-03T22:27:26.617Z,100641.22
2022-09-03T22:30:20.110Z,100631.22
2022-09-03T22:33:32.762Z,100640.03
2022-09-03T22:36:42.466Z,100636.03
2022-09-03T22:39:39.818Z,100637.97
2022-09-03T22:42:36.109Z,100645.97
2022-09-03T22:45:33.782Z,100630.81
2022-09-03T22:48:40.488Z,100616.44
2022-09-03T22:51:33.702Z,100614.84
2022-09-03T22:54:47.594Z,100633.16
2022-09-03T22:57:39.800Z,100605.47
2022-09-03T23:00:29.632Z,100639.91
2022-09-03T23:03:25.549Z,100636.97
2022-09-03T23:06:22.193Z,100639.38
2022-09-03T23:09:17.565Z,100643.28
2022-09-03T23:12:15.394Z,100632.50
2022-09-03T23:15:07.026Z,100646.88
2022-09-03T23:18:09.164Z,100646.84
2022-09-03T23:21:11.536Z,100633.63
2022-09-03T23:24:08.105Z,100626.78
2022-09-03T23:26:56.014Z,100653.63
2022-09-03T23:29:52.267Z,100651.25
2022-09-03T23:32:39.966Z,100623.16
2022-09-03T23:35:54.327Z,100650.47
2022-09-03T23:39:10.732Z,100661.34
2022-09-03T23:42:16.348Z,100670.16
2022-09-03T23:45:19.061Z,100674.91
2022-09-03T23:48:09.765Z,100599.59
2022-09-03T23:51:06.231Z,100677.88
2022-09-03T23:54:02.993Z,100645.47
2022-09-03T23:57:05.525Z,100679.09
